Slavyansk-na-Kubani, Russia
Current Conditions -  °F | °C
As of 11:00 PM on Tuesday 21 Oct 2014 (Local Time) from URKA Reporting Station
Overcast Overcast  
Wind Chill: 59°   Ceiling: 11000
Heat Index: 59°   Visibility: 6mi
Dew Point: 52°   Wind: 18mph
Humidity: 77%   Direction: 200°SSW
Pressure: 29.85"   Gusts: 27mph
Location:  45.25°N, 38.12°E
Report Text: URKA 212000Z 20008G12MPS 9999 SCT028 OVC110 15/11 Q1011 NOSIGRMK QFE753/1004 SC070
Loading
Personal Weather Stations






























Interactive Weather Map
Tropical Storm Tracking
New forecast layout! Learn more

10-Day Weather Forecast

Advertisements
Track Severe Weather on mobile